Aeroporto :
LOGIN :

Iscrizione | Disclaimer

   EN    FR    IT 

 










Sommario :    VFR   VFR Marginale   IFR   IFR Intensivo   IFR Molto Intensivo
Visibilità : 
Base nubi : 
>= 8 km
>= 3000ft
5 / 8 km
1000 / 3000 ft
1500m / 5 km
500 / 1000 ft
800 / 1500m
200 / 500 ft
< 800m
< 200 ft
Simboli :   Temporali  Nebbia  Neve Forte  Precipitazioni Forti  Vento > 20 kt
SIGMETs :   Varie  Temporali  Ghiacco  Turbolenza  Onda orograficha  Ceneri Vulcaniche






- Altitudine del aeroporto : 179 ft


LIPI - Rivolto AFB Udine

ULTIMO METAR :
  • 250555Z 05003KT 7000 SCT030 SCT060 09/06 Q1012 RMK BKN VIS MIN 7000 WIND THR06 10003KT WIND THR24 07003KT WHT

METARs OBSOLETI :
  • 250455Z 06002KT 8000 SCT030 SCT060 09/06 Q1013 RMK BKN VIS MIN 8000 WIND THR06 10003KT WIND THR24 09003KT BLU
  • 250355Z 03002KT 8000 SCT040 SCT060 09/07 Q1013 RMK BKN VIS MIN 8000 WIND THR06 08003KT WIND THR24 07002KT BLU

TAF COR TAF LIPI
Valido dal 25 a 06 ore il 25 a 15 ore UTC


250500Z 2506/2515 07004KT 9999 BKN035
PROB40
TEMPO 2506/2515 5000 RA BR



MetMap, La meteo Aeronautica in un colpo d'occhio ! - Copyright ORBIFLY Dicembre 2007 - Disclaimer

ORBIFLY MET'MAP TEAM :

Programmazione e sviluppo : Alexandra Zaïnal
Concezione : Baudouin d'Aumeries
Aiuto per la programmazione : Marc-Olivier Méhu
Supporto tecnico e logistico : Manuel Goepfert
Aiuto per la traduzione : Arnaldo La Scala

Contatto : metmap@orbifly.com




FONTI E CREDITI :

   NOAA